ADDS METAR Data INFO
IDs: Format: Raw Decoded Include TAF

Data at: 0507 UTC 23 May 2017

KEMM 230455Z AUTO 10011G16KT 10SM 06/00 A3036 RMK AO2
KEMM 230435Z AUTO 11012G17KT 10SM 06/00 A3035 RMK AO2
KEMM 230415Z AUTO 12013G17KT 10SM -RA 06/01 A3035 RMK AO2
KEMM 230355Z AUTO 14004G16KT 10SM 06/00 A3035 RMK AO2
KEMM 230335Z AUTO 12006G17KT 10SM 07/00 A3034 RMK AO2
KEMM 230315Z AUTO 10016G20KT 10SM 07/00 A3032 RMK AO2
KEMM 230255Z AUTO 09012G17KT 10SM 08/00 A3031 RMK AO2
KEMM 230235Z AUTO 09015G20KT 10SM 09/00 A3030 RMK AO2
KEMM 230215Z AUTO 32005KT 10SM 12/00 A3028 RMK AO2
KEMM 230155Z AUTO 31008KT 10SM 13/M01 A3028 RMK AO2
KEMM 230135Z AUTO 33010KT 10SM 13/M02 A3027 RMK AO2
KEMM 230115Z AUTO 31015G20KT 10SM 14/M02 A3026 RMK AO2
KEMM 230055Z AUTO 31014G19KT 10SM 14/M02 A3025 RMK AO2
KEMM 230035Z AUTO 32016G21KT 10SM 15/M02 A3025 RMK AO2
KEMM 230015Z AUTO 31017G30KT 10SM 15/M02 A3025 RMK AO2
KEMM 222355Z AUTO 29018G25KT 10SM 15/M01 A3026 RMK AO2
KEMM 222335Z AUTO 30018G27KT 10SM 16/M02 A3025 RMK AO2
KEMM 222315Z AUTO 30017G27KT 10SM 15/M01 A3025 RMK AO2
KEMM 222255Z AUTO 29018G26KT 10SM 16/00 A3026 RMK AO2
KEMM 222235Z AUTO 29016G25KT 10SM 16/M01 A3026 RMK AO2
KEMM 222215Z AUTO 28017G25KT 10SM 16/00 A3026 RMK AO2
KEMM 222155Z AUTO 28019G28KT 10SM 17/00 A3026 RMK AO2
KEMM 222135Z AUTO 30017G27KT 10SM 16/M01 A3026 RMK AO2
KEMM 222115Z AUTO 30019G25KT 10SM 16/M01 A3026 RMK AO2
KEMM 222055Z AUTO 29015G24KT 10SM 16/M01 A3026 RMK AO2
KEMM 222035Z AUTO 30019G24KT 10SM 16/M02 A3026 RMK AO2
KEMM 222015Z AUTO 31017G24KT 10SM 16/M01 A3027 RMK AO2
KEMM 221955Z AUTO 29016G28KT 10SM 16/M02 A3027 RMK AO2
KEMM 221935Z AUTO 27018G22KT 10SM 15/M01 A3028 RMK AO2
KEMM 221915Z AUTO 31017G23KT 10SM 14/M02 A3029 RMK AO2
KEMM 221855Z AUTO 29011G25KT 10SM 15/M01 A3030 RMK AO2
KEMM 221835Z AUTO 30012G20KT 10SM 13/M02 A3030 RMK AO2
KEMM 221815Z AUTO 30013G24KT 10SM 13/M01 A3031 RMK AO2
KEMM 221755Z AUTO 29015G23KT 10SM 14/M01 A3031 RMK AO2
KEMM 221735Z AUTO 32015G25KT 10SM 14/M02 A3031 RMK AO2
KEMM 221715Z AUTO 32014G21KT 10SM 13/M02 A3032 RMK AO2
KEMM 221655Z AUTO 31016G22KT 10SM 12/M03 A3033 RMK AO2
KEMM 221635Z AUTO 29008KT 10SM 12/00 A3032 RMK AO2
KEMM 221615Z AUTO 26006KT 10SM 11/01 A3033 RMK AO2
KEMM 221555Z AUTO 29007KT 10SM 11/00 A3033 RMK AO2
KEMM 221535Z AUTO 32010KT 10SM 11/M01 A3034 RMK AO2
KEMM 221515Z AUTO 30005KT 10SM 09/01 A3034 RMK AO2
KEMM 221455Z AUTO 31006KT 10SM 08/01 A3034 RMK AO2
KEMM 221435Z AUTO 32007KT 10SM 08/02 A3034 RMK AO2
KEMM 221415Z AUTO 34006KT 10SM 07/02 A3034 RMK AO2
KEMM 221355Z AUTO 32006KT 10SM 05/02 A3033 RMK AO2
KEMM 221335Z AUTO 32007KT 10SM 04/01 A3033 RMK AO2
KEMM 221315Z AUTO 33007KT 10SM 03/01 A3033 RMK AO2
KEMM 221255Z AUTO 33008KT 10SM 03/01 A3032 RMK AO2
KEMM 221235Z AUTO 32007KT 10SM 02/00 A3032 RMK AO2
KEMM 221215Z AUTO 33009KT 10SM 01/00 A3031 RMK AO2
KEMM 221155Z AUTO 32007KT 10SM 01/00 A3031 RMK AO2
KEMM 221135Z AUTO 32006KT 10SM 01/00 A3031 RMK AO2
KEMM 221115Z AUTO 33006KT 10SM 01/00 A3031 RMK AO2
KEMM 221055Z AUTO 33005KT 10SM 01/00 A3032 RMK AO2
KEMM 221035Z AUTO 34008KT 10SM 01/00 A3032 RMK AO2
KEMM 221015Z AUTO 33010KT 10SM 01/00 A3032 RMK AO2
KEMM 220955Z AUTO 32008KT 10SM 01/00 A3033 RMK AO2
KEMM 220935Z AUTO 34008KT 10SM 01/00 A3033 RMK AO2
KEMM 220915Z AUTO 34007KT 10SM 01/01 A3033 RMK AO2
KEMM 220855Z AUTO 34007KT 10SM 01/00 A3033 RMK AO2
KEMM 220835Z AUTO 35007KT 10SM 01/01 A3034 RMK AO2
KEMM 220815Z AUTO 35005KT 10SM 02/01 A3034 RMK AO2
KEMM 220755Z AUTO 00000KT 10SM 03/02 A3034 RMK AO2
KEMM 220735Z AUTO 00000KT 10SM 03/02 A3035 RMK AO2
KEMM 220715Z AUTO 00000KT 10SM 04/02 A3035 RMK AO2
KEMM 220655Z AUTO 00000KT 10SM 04/02 A3035 RMK AO2
KEMM 220635Z AUTO 00000KT 10SM 05/02 A3035 RMK AO2
KEMM 220615Z AUTO 15003KT 10SM 05/02 A3035 RMK AO2
KEMM 220555Z AUTO 13004KT 10SM 05/02 A3035 RMK AO2
KEMM 220535Z AUTO 13005G14KT 10SM 05/02 A3035 RMK AO2
KEMM 220515Z AUTO 12005KT 10SM 05/02 A3035 RMK AO2
KEMM 220455Z AUTO 10006G16KT 10SM 05/02 A3034 RMK AO2
KEMM 220435Z AUTO 10006G16KT 10SM 06/02 A3033 RMK AO2
KEMM 220415Z AUTO 13006KT 10SM 06/02 A3032 RMK AO2
KEMM 220355Z AUTO 11008G15KT 10SM 06/02 A3032 RMK AO2
KEMM 220335Z AUTO 09012G24KT 10SM 07/02 A3031 RMK AO2
KEMM 220315Z AUTO 06011G14KT 10SM 08/00 A3031 RMK AO2
KEMM 220255Z AUTO 02006KT 10SM 08/00 A3030 RMK AO2
KEMM 220235Z AUTO 34006KT 10SM 10/00 A3028 RMK AO2
KEMM 220215Z AUTO 33006KT 10SM 11/00 A3028 RMK AO2
KEMM 220155Z AUTO 31008KT 10SM 11/00 A3026 RMK AO2
KEMM 220135Z AUTO 31009KT 10SM 11/00 A3026 RMK AO2
KEMM 220115Z AUTO 32013G16KT 10SM 12/00 A3026 RMK AO2
KEMM 220055Z AUTO 31013KT 10SM 13/00 A3026 RMK AO2
KEMM 220035Z AUTO 30010KT 10SM 14/00 A3025 RMK AO2
KEMM 220015Z AUTO 36007KT 10SM 13/00 A3025 RMK AO2
KEMM 212355Z AUTO 34008KT 10SM 12/00 A3026 RMK AO2
KEMM 212335Z AUTO 34012G19KT 10SM 14/01 A3025 RMK AO2
KEMM 212315Z AUTO 32014G18KT 10SM 12/00 A3025 RMK AO2
KEMM 212255Z AUTO 32014G17KT 10SM 14/00 A3025 RMK AO2
KEMM 212235Z AUTO 30011G16KT 10SM 14/00 A3025 RMK AO2
KEMM 212215Z AUTO 35007KT 10SM 13/02 A3025 RMK AO2
KEMM 212155Z AUTO 34011G17KT 10SM 13/01 A3026 RMK AO2
KEMM 212135Z AUTO 02007G17KT 10SM 13/01 A3026 RMK AO2
KEMM 212115Z AUTO 33009G17KT 10SM 11/01 A3026 RMK AO2
KEMM 212055Z AUTO 34015G21KT 10SM 11/02 A3026 RMK AO2
KEMM 212035Z AUTO 34012G15KT 10SM 12/02 A3026 RMK AO2
KEMM 212015Z AUTO 31009KT 10SM 13/01 A3026 RMK AO2
KEMM 211955Z AUTO 25005KT 10SM 11/01 A3025 RMK AO2
KEMM 211935Z AUTO 06005KT 10SM 12/01 A3026 RMK AO2
KEMM 211915Z AUTO 00000KT 10SM 12/01 A3026 RMK AO2
KEMM 211855Z AUTO 00000KT 10SM 12/01 A3026 RMK AO2
KEMM 211835Z AUTO 14007KT 10SM 11/02 A3027 RMK AO2
KEMM 211815Z AUTO 08004KT 10SM 10/02 A3027 RMK AO2
KEMM 211755Z AUTO 09007KT 10SM -DZ 10/03 A3026 RMK AO2
KEMM 211735Z AUTO 34006KT 7SM RA 07/01 A3026 RMK AO2
KEMM 211715Z AUTO 00000KT 10SM -RA 10/01 A3026 RMK AO2


Page loaded:  05:07 UTC  |   10:07 PM Pacific  |   11:07 PM Mountain  |   12:07 AM Central  |   01:07 AM Eastern

 

ADVISORIES

FORECASTS

FORECASTS

OBSERVATIONS

USER TOOLS

ABOUT US